Time,TemperatureF,DewpointF,PressureIn,WindDirection,WindDirectionDegrees,WindSpeedMPH,WindSpeedGustMPH,Humidity,HourlyPrecipIn,Conditions,Clouds,dailyrainin,SoftwareType,DateUTC
2013-01-31 00:00:00,-0.9,-4.6,29.90,North,11,6.0,13.0,84,0.00,,---,0.00,VWS V13.01,2013-01-31 06:00:00,
2013-01-31 00:05:00,-0.9,-4.6,29.90,NNW,344,8.0,13.0,84,0.00,,---,0.00,VWS V13.01,2013-01-31 06:05:00,
2013-01-31 00:11:00,-0.9,-4.6,29.90,NNE,19,7.0,14.0,84,0.00,,---,0.00,VWS V13.01,2013-01-31 06:11:00,
2013-01-31 00:16:00,-0.9,-4.6,29.90,NNE,17,6.0,14.0,84,0.00,,---,0.00,VWS V13.01,2013-01-31 06:16:00,
2013-01-31 00:21:00,-0.9,-4.6,29.90,North,355,4.0,11.0,84,0.00,,---,0.00,VWS V13.01,2013-01-31 06:21:00,
2013-01-31 00:26:00,-0.9,-4.6,29.90,North,355,11.0,11.0,84,0.00,,---,0.00,VWS V13.01,2013-01-31 06:26:00,
2013-01-31 00:31:00,-0.9,-4.6,29.89,NW,322,10.0,13.0,84,0.00,,---,0.00,VWS V13.01,2013-01-31 06:31:00,
2013-01-31 00:36:00,-0.9,-4.3,29.89,NW,321,1.0,10.0,85,0.00,,---,0.00,VWS V13.01,2013-01-31 06:36:00,
2013-01-31 00:41:00,-0.9,-4.3,29.89,NW,325,9.0,13.0,85,0.00,,---,0.00,VWS V13.01,2013-01-31 06:41:00,
2013-01-31 00:47:00,-0.9,-4.3,29.90,WNW,298,3.0,14.0,85,0.00,,---,0.00,VWS V13.01,2013-01-31 06:47:00,
2013-01-31 00:52:00,-0.9,-4.3,29.90,NNW,345,2.0,10.0,85,0.00,,---,0.00,VWS V13.01,2013-01-31 06:52:00,
2013-01-31 00:57:00,-1.0,-4.4,29.90,North,350,11.0,13.0,85,0.00,,---,0.00,VWS V13.01,2013-01-31 06:57:00,
2013-01-31 01:02:00,-1.0,-4.4,29.90,NNW,327,4.0,7.0,85,0.00,,---,0.00,VWS V13.01,2013-01-31 07:02:00,
2013-01-31 01:08:00,-1.0,-4.4,29.90,North,355,5.0,11.0,85,0.00,,---,0.00,VWS V13.01,2013-01-31 07:08:00,
2013-01-31 01:13:00,-1.1,-4.5,29.90,NNW,340,12.0,15.0,85,0.00,,---,0.00,VWS V13.01,2013-01-31 07:13:00,
2013-01-31 01:18:00,-1.1,-4.5,29.91,North,355,7.0,9.0,85,0.00,,---,0.00,VWS V13.01,2013-01-31 07:18:00,
2013-01-31 01:23:00,-1.1,-4.5,29.91,NNW,348,6.0,15.0,85,0.00,,---,0.00,VWS V13.01,2013-01-31 07:23:00,
2013-01-31 01:28:00,-1.1,-4.5,29.91,NW,306,12.0,15.0,85,0.00,,---,0.00,VWS V13.01,2013-01-31 07:28:00,
2013-01-31 01:33:00,-1.1,-4.5,29.91,NNW,339,6.0,12.0,85,0.00,,---,0.00,VWS V13.01,2013-01-31 07:33:00,
2013-01-31 01:39:00,-1.1,-4.5,29.91,North,350,7.0,14.0,85,0.00,,---,0.00,VWS V13.01,2013-01-31 07:39:00,
2013-01-31 01:44:00,-1.1,-4.5,29.91,NNW,347,7.0,14.0,85,0.00,,---,0.00,VWS V13.01,2013-01-31 07:44:00,
2013-01-31 01:49:00,-1.1,-4.5,29.92,NW,317,6.0,13.0,85,0.00,,---,0.00,VWS V13.01,2013-01-31 07:49:00,
2013-01-31 01:55:00,-1.2,-4.6,29.92,WNW,292,7.0,13.0,85,0.00,,---,0.00,VWS V13.01,2013-01-31 07:55:00,
2013-01-31 02:00:00,-1.2,-4.6,29.92,North,351,2.0,13.0,85,0.00,,---,0.00,VWS V13.01,2013-01-31 08:00:00,
2013-01-31 02:05:00,-1.3,-4.7,29.92,NW,323,5.0,11.0,85,0.00,,---,0.00,VWS V13.01,2013-01-31 08:05:00,
2013-01-31 02:10:00,-1.3,-4.7,29.92,NNW,348,12.0,12.0,85,0.00,,---,0.00,VWS V13.01,2013-01-31 08:10:00,
2013-01-31 02:16:00,-1.3,-4.7,29.92,North,5,4.0,17.0,85,0.00,,---,0.00,VWS V13.01,2013-01-31 08:16:00,
2013-01-31 02:32:00,-1.4,-4.8,29.93,NW,325,5.0,10.0,85,0.00,,---,0.00,VWS V13.01,2013-01-31 08:32:00,
2013-01-31 02:38:00,-1.5,-4.9,29.93,NW,313,4.0,16.0,85,0.00,,---,0.00,VWS V13.01,2013-01-31 08:38:00,
2013-01-31 02:43:00,-1.6,-5.0,29.93,NW,313,9.0,16.0,85,0.00,,---,0.00,VWS V13.01,2013-01-31 08:43:00,
2013-01-31 02:48:00,-1.6,-5.0,29.94,NNE,30,8.0,12.0,85,0.00,,---,0.00,VWS V13.01,2013-01-31 08:48:00,
2013-01-31 02:55:00,-1.7,-5.1,29.94,NNW,333,6.0,14.0,85,0.00,,---,0.00,VWS V13.01,2013-01-31 08:55:00,
2013-01-31 03:00:00,-1.7,-5.1,29.94,NW,304,4.0,15.0,85,0.00,,---,0.00,VWS V13.01,2013-01-31 09:00:00,
2013-01-31 03:06:00,-1.7,-5.1,29.94,NW,311,9.0,16.0,85,0.00,,---,0.00,VWS V13.01,2013-01-31 09:06:00,
2013-01-31 03:11:00,-1.8,-5.2,29.94,NNW,331,10.0,16.0,85,0.00,,---,0.00,VWS V13.01,2013-01-31 09:11:00,
2013-01-31 03:17:00,-1.8,-5.2,29.94,North,360,10.0,16.0,85,0.00,,---,0.00,VWS V13.01,2013-01-31 09:17:00,
2013-01-31 03:22:00,-1.9,-5.5,29.94,NW,319,12.0,15.0,84,0.00,,---,0.00,VWS V13.01,2013-01-31 09:22:00,
2013-01-31 03:27:00,-1.9,-5.5,29.94,NNW,342,5.0,15.0,84,0.00,,---,0.00,VWS V13.01,2013-01-31 09:27:00,
2013-01-31 03:32:00,-2.0,-5.6,29.94,WNW,294,4.0,5.0,84,0.00,,---,0.00,VWS V13.01,2013-01-31 09:32:00,
2013-01-31 03:37:00,-2.0,-5.6,29.94,NNE,20,9.0,17.0,84,0.00,,---,0.00,VWS V13.01,2013-01-31 09:37:00,
2013-01-31 03:42:00,-2.1,-5.7,29.94,NW,317,4.0,17.0,84,0.00,,---,0.00,VWS V13.01,2013-01-31 09:42:00,
2013-01-31 03:47:00,-2.1,-5.7,29.95,WNW,298,4.0,10.0,84,0.00,,---,0.00,VWS V13.01,2013-01-31 09:47:00,
2013-01-31 03:53:00,-2.1,-5.7,29.95,NW,312,4.0,15.0,84,0.00,,---,0.00,VWS V13.01,2013-01-31 09:53:00,
2013-01-31 03:58:00,-2.2,-5.8,29.95,NNW,327,2.0,16.0,84,0.00,,---,0.00,VWS V13.01,2013-01-31 09:58:00,
2013-01-31 04:03:00,-2.2,-5.8,29.96,NNW,344,4.0,6.0,84,0.00,,---,0.00,VWS V13.01,2013-01-31 10:03:00,
2013-01-31 04:08:00,-2.2,-5.8,29.96,NW,321,4.0,11.0,84,0.00,,---,0.00,VWS V13.01,2013-01-31 10:08:00,
2013-01-31 04:13:00,-2.3,-5.9,29.96,West,271,3.0,12.0,84,0.00,,---,0.00,VWS V13.01,2013-01-31 10:13:00,
2013-01-31 04:18:00,-2.4,-5.8,29.96,NNW,340,2.0,11.0,85,0.00,,---,0.00,VWS V13.01,2013-01-31 10:18:00,
2013-01-31 04:23:00,-2.4,-6.0,29.96,NW,323,2.0,11.0,84,0.00,,---,0.00,VWS V13.01,2013-01-31 10:23:00,
2013-01-31 04:28:00,-2.5,-6.1,29.96,NW,321,5.0,14.0,84,0.00,,---,0.00,VWS V13.01,2013-01-31 10:28:00,
2013-01-31 04:33:00,-2.6,-6.2,29.98,NNW,328,6.0,6.0,84,0.00,,---,0.00,VWS V13.01,2013-01-31 10:33:00,
2013-01-31 04:38:00,-2.7,-6.3,29.98,NW,326,3.0,13.0,84,0.00,,---,0.00,VWS V13.01,2013-01-31 10:38:00,
2013-01-31 04:43:00,-2.7,-6.3,29.98,NNE,20,9.0,14.0,84,0.00,,---,0.00,VWS V13.01,2013-01-31 10:43:00,
2013-01-31 04:48:00,-2.8,-6.4,29.99,NW,322,9.0,9.0,84,0.00,,---,0.00,VWS V13.01,2013-01-31 10:48:00,
2013-01-31 04:53:00,-2.8,-6.4,29.99,NW,326,2.0,9.0,84,0.00,,---,0.00,VWS V13.01,2013-01-31 10:53:00,
2013-01-31 04:58:00,-2.8,-6.4,29.99,NW,321,5.0,10.0,84,0.00,,---,0.00,VWS V13.01,2013-01-31 10:58:00,
2013-01-31 05:03:00,-2.9,-6.5,29.99,NNW,332,4.0,5.0,84,0.00,,---,0.00,VWS V13.01,2013-01-31 11:03:00,
2013-01-31 05:08:00,-3.0,-6.6,29.99,NNW,338,12.0,14.0,84,0.00,,---,0.00,VWS V13.01,2013-01-31 11:08:00,
2013-01-31 05:13:00,-3.0,-6.6,29.99,NNW,340,6.0,14.0,84,0.00,,---,0.00,VWS V13.01,2013-01-31 11:13:00,
2013-01-31 05:18:00,-3.0,-6.6,30.00,NW,325,6.0,9.0,84,0.00,,---,0.00,VWS V13.01,2013-01-31 11:18:00,
2013-01-31 05:23:00,-3.1,-6.7,30.00,NNW,346,2.0,10.0,84,0.00,,---,0.00,VWS V13.01,2013-01-31 11:23:00,
2013-01-31 05:28:00,-3.2,-6.8,30.00,NNW,347,9.0,12.0,84,0.00,,---,0.00,VWS V13.01,2013-01-31 11:28:00,
2013-01-31 05:33:00,-3.4,-7.0,30.00,NNW,338,3.0,11.0,84,0.00,,---,0.00,VWS V13.01,2013-01-31 11:33:00,
2013-01-31 05:38:00,-3.5,-7.1,30.00,NNE,21,6.0,13.0,84,0.00,,---,0.00,VWS V13.01,2013-01-31 11:38:00,
2013-01-31 05:43:00,-3.6,-7.2,30.00,North,355,12.0,13.0,84,0.00,,---,0.00,VWS V13.01,2013-01-31 11:43:00,
2013-01-31 05:48:00,-3.7,-7.3,30.00,NW,312,6.0,16.0,84,0.00,,---,0.00,VWS V13.01,2013-01-31 11:48:00,
2013-01-31 05:53:00,-4.0,-7.8,30.00,North,5,10.0,17.0,83,0.00,,---,0.00,VWS V13.01,2013-01-31 11:53:00,
2013-01-31 05:58:00,-4.4,-8.5,30.00,NNE,15,11.0,17.0,82,0.00,,---,0.00,VWS V13.01,2013-01-31 11:58:00,
2013-01-31 06:03:00,-4.8,-8.9,30.03,North,9,3.0,13.0,82,0.00,,---,0.00,VWS V13.01,2013-01-31 12:03:00,
2013-01-31 06:08:00,-5.0,-9.1,30.03,NW,321,4.0,13.0,82,0.00,,---,0.00,VWS V13.01,2013-01-31 12:08:00,
2013-01-31 06:13:00,-5.1,-9.2,30.03,NNW,333,7.0,14.0,82,0.00,,---,0.00,VWS V13.01,2013-01-31 12:13:00,
2013-01-31 06:18:00,-5.1,-8.9,30.04,NW,318,3.0,11.0,83,0.00,,---,0.00,VWS V13.01,2013-01-31 12:18:00,
2013-01-31 06:23:00,-5.3,-9.4,30.04,NW,319,14.0,16.0,82,0.00,,---,0.00,VWS V13.01,2013-01-31 12:23:00,
2013-01-31 06:28:00,-5.5,-9.6,30.04,WNW,296,11.0,16.0,82,0.00,,---,0.00,VWS V13.01,2013-01-31 12:28:00,
2013-01-31 06:34:00,-5.7,-10.0,30.07,NNW,332,9.0,19.0,81,0.00,,---,0.00,VWS V13.01,2013-01-31 12:34:00,
2013-01-31 06:39:00,-5.8,-10.1,30.07,WNW,284,6.0,19.0,81,0.00,,---,0.00,VWS V13.01,2013-01-31 12:39:00,
2013-01-31 06:44:00,-5.9,-10.0,30.07,NNW,337,10.0,19.0,82,0.00,,---,0.00,VWS V13.01,2013-01-31 12:44:00,
2013-01-31 06:49:00,-5.9,-10.0,30.07,NNE,17,5.0,18.0,82,0.00,,---,0.00,VWS V13.01,2013-01-31 12:49:00,
2013-01-31 06:54:00,-5.9,-10.0,30.07,NNW,333,4.0,18.0,82,0.00,,---,0.00,VWS V13.01,2013-01-31 12:54:00,
2013-01-31 06:59:00,-5.9,-10.0,30.07,NW,320,7.0,18.0,82,0.00,,---,0.00,VWS V13.01,2013-01-31 12:59:00,
2013-01-31 07:04:00,-6.0,-10.1,30.08,NNW,327,7.0,15.0,82,0.00,,---,0.00,VWS V13.01,2013-01-31 13:04:00,
2013-01-31 07:09:00,-6.0,-10.3,30.08,North,355,5.0,15.0,81,0.00,,---,0.00,VWS V13.01,2013-01-31 13:09:00,
2013-01-31 07:14:00,-6.1,-10.1,30.08,WNW,282,9.0,17.0,82,0.00,,---,0.00,VWS V13.01,2013-01-31 13:14:00,
2013-01-31 07:19:00,-6.1,-10.1,30.08,WNW,300,10.0,12.0,82,0.00,,---,0.00,VWS V13.01,2013-01-31 13:19:00,
2013-01-31 07:24:00,-6.2,-10.2,30.08,North,355,13.0,14.0,82,0.00,,---,0.00,VWS V13.01,2013-01-31 13:24:00,
2013-01-31 07:29:00,-6.2,-10.2,30.08,North,355,12.0,14.0,82,0.00,,---,0.00,VWS V13.01,2013-01-31 13:29:00,
2013-01-31 07:34:00,-6.2,-10.2,30.09,North,350,6.0,14.0,82,0.00,,---,0.00,VWS V13.01,2013-01-31 13:34:00,
2013-01-31 07:39:00,-6.2,-10.2,30.09,NW,317,8.0,14.0,82,0.00,,---,0.00,VWS V13.01,2013-01-31 13:39:00,
2013-01-31 07:44:00,-6.2,-10.2,30.09,North,350,2.0,14.0,82,0.00,,---,0.00,VWS V13.01,2013-01-31 13:44:00,
2013-01-31 07:49:00,-6.2,-10.2,30.10,NW,325,8.0,10.0,82,0.00,,---,0.00,VWS V13.01,2013-01-31 13:49:00,
2013-01-31 07:54:00,-6.2,-10.2,30.10,NNW,327,5.0,14.0,82,0.00,,---,0.00,VWS V13.01,2013-01-31 13:54:00,
2013-01-31 07:59:00,-6.2,-10.2,30.10,North,5,10.0,17.0,82,0.00,,---,0.00,VWS V13.01,2013-01-31 13:59:00,
2013-01-31 08:04:00,-6.3,-10.4,30.11,NNW,327,6.0,22.0,82,0.00,,---,0.00,VWS V13.01,2013-01-31 14:04:00,
2013-01-31 08:09:00,-6.3,-10.6,30.11,NNW,347,9.0,22.0,81,0.00,,---,0.00,VWS V13.01,2013-01-31 14:09:00,
2013-01-31 08:14:00,-6.3,-10.6,30.11,NNW,333,10.0,22.0,81,0.00,,---,0.00,VWS V13.01,2013-01-31 14:14:00,
2013-01-31 08:19:00,-6.3,-10.4,30.12,NW,319,3.0,19.0,82,0.00,,---,0.00,VWS V13.01,2013-01-31 14:19:00,
2013-01-31 08:24:00,-6.3,-10.6,30.12,NNW,327,15.0,20.0,81,0.00,,---,0.00,VWS V13.01,2013-01-31 14:24:00,
2013-01-31 08:29:00,-6.3,-10.6,30.12,NW,307,11.0,21.0,81,0.00,,---,0.00,VWS V13.01,2013-01-31 14:29:00,
2013-01-31 08:34:00,-6.2,-10.5,30.13,NNW,336,7.0,16.0,81,0.00,,---,0.00,VWS V13.01,2013-01-31 14:34:00,
2013-01-31 08:39:00,-6.2,-10.5,30.13,NW,319,16.0,16.0,81,0.00,,---,0.00,VWS V13.01,2013-01-31 14:39:00,
2013-01-31 08:45:00,-6.1,-10.4,30.13,NW,317,10.0,19.0,81,0.00,,---,0.00,VWS V13.01,2013-01-31 14:45:00,
2013-01-31 08:50:00,-6.1,-10.4,30.13,NNW,333,10.0,18.0,81,0.00,,---,0.00,VWS V13.01,2013-01-31 14:50:00,
2013-01-31 08:55:00,-6.0,-10.3,30.13,North,351,5.0,18.0,81,0.00,,---,0.00,VWS V13.01,2013-01-31 14:55:00,
2013-01-31 09:00:00,-5.8,-10.1,30.13,North,355,11.0,18.0,81,0.00,,---,0.00,VWS V13.01,2013-01-31 15:00:00,
2013-01-31 09:05:00,-5.8,-10.4,30.14,NNW,332,14.0,18.0,80,0.00,,---,0.00,VWS V13.01,2013-01-31 15:05:00,
2013-01-31 09:10:00,-5.8,-10.1,30.14,NW,307,6.0,18.0,81,0.00,,---,0.00,VWS V13.01,2013-01-31 15:10:00,
2013-01-31 09:15:00,-5.9,-10.5,30.14,NW,315,3.0,19.0,80,0.00,,---,0.00,VWS V13.01,2013-01-31 15:15:00,
2013-01-31 09:20:00,-5.8,-10.4,30.17,NW,316,5.0,15.0,80,0.00,,---,0.00,VWS V13.01,2013-01-31 15:20:00,
2013-01-31 09:25:00,-5.8,-10.4,30.17,NW,314,4.0,18.0,80,0.00,,---,0.00,VWS V13.01,2013-01-31 15:25:00,
2013-01-31 09:30:00,-5.8,-10.4,30.17,North,360,12.0,18.0,80,0.00,,---,0.00,VWS V13.01,2013-01-31 15:30:00,
2013-01-31 09:35:00,-5.8,-10.4,30.17,North,355,9.0,13.0,80,0.00,,---,0.00,VWS V13.01,2013-01-31 15:35:00,
2013-01-31 09:40:00,-5.7,-10.3,30.17,NW,319,6.0,16.0,80,0.00,,---,0.00,VWS V13.01,2013-01-31 15:40:00,
2013-01-31 09:45:00,-5.6,-10.2,30.17,NNW,327,2.0,16.0,80,0.00,,---,0.00,VWS V13.01,2013-01-31 15:45:00,
2013-01-31 09:50:00,-5.3,-9.9,30.17,NW,305,6.0,11.0,80,0.00,,---,0.00,VWS V13.01,2013-01-31 15:50:00,
2013-01-31 09:55:00,-5.4,-10.2,30.17,NNW,344,13.0,22.0,79,0.00,,---,0.00,VWS V13.01,2013-01-31 15:55:00,
2013-01-31 10:00:00,-5.3,-10.1,30.17,NNW,330,6.0,22.0,79,0.00,,---,0.00,VWS V13.01,2013-01-31 16:00:00,
2013-01-31 10:05:00,-5.1,-9.9,30.17,NNW,336,7.0,15.0,79,0.00,,---,0.00,VWS V13.01,2013-01-31 16:05:00,
2013-01-31 10:10:00,-5.0,-9.8,30.17,NW,326,9.0,21.0,79,0.00,,---,0.00,VWS V13.01,2013-01-31 16:10:00,
2013-01-31 10:15:00,-4.6,-9.7,30.17,WNW,302,9.0,21.0,78,0.00,,---,0.00,VWS V13.01,2013-01-31 16:15:00,
2013-01-31 10:20:00,-4.4,-9.5,30.19,NW,310,11.0,14.0,78,0.00,,---,0.00,VWS V13.01,2013-01-31 16:20:00,
2013-01-31 10:25:00,-4.2,-9.3,30.19,WNW,296,6.0,17.0,78,0.00,,---,0.00,VWS V13.01,2013-01-31 16:25:00,
2013-01-31 10:31:00,-4.1,-9.2,30.19,NW,319,7.0,17.0,78,0.00,,---,0.00,VWS V13.01,2013-01-31 16:31:00,
2013-01-31 10:36:00,-4.2,-9.3,30.18,NNW,346,4.0,16.0,78,0.00,,---,0.00,VWS V13.01,2013-01-31 16:36:00,
2013-01-31 10:41:00,-3.9,-9.0,30.18,NW,321,12.0,16.0,78,0.00,,---,0.00,VWS V13.01,2013-01-31 16:41:00,
2013-01-31 10:46:00,-4.1,-9.2,30.19,NW,323,7.0,17.0,78,0.00,,---,0.00,VWS V13.01,2013-01-31 16:46:00,
2013-01-31 10:51:00,-4.0,-9.1,30.19,NNW,336,7.0,17.0,78,0.00,,---,0.00,VWS V13.01,2013-01-31 16:51:00,
2013-01-31 10:56:00,-3.7,-8.8,30.19,North,355,4.0,17.0,78,0.00,,---,0.00,VWS V13.01,2013-01-31 16:56:00,
2013-01-31 11:01:00,-3.4,-8.5,30.20,WNW,294,10.0,17.0,78,0.00,,---,0.00,VWS V13.01,2013-01-31 17:01:00,
2013-01-31 11:06:00,-3.1,-8.2,30.20,NNE,20,5.0,12.0,78,0.00,,---,0.00,VWS V13.01,2013-01-31 17:06:00,
2013-01-31 11:11:00,-3.1,-8.5,30.20,WNW,286,7.0,15.0,77,0.00,,---,0.00,VWS V13.01,2013-01-31 17:11:00,
2013-01-31 11:16:00,-3.2,-8.6,30.20,NNW,329,6.0,16.0,77,0.00,,---,0.00,VWS V13.01,2013-01-31 17:16:00,
2013-01-31 11:21:00,-3.2,-8.6,30.20,NNW,331,5.0,17.0,77,0.00,,---,0.00,VWS V13.01,2013-01-31 17:21:00,
2013-01-31 11:26:00,-3.2,-8.6,30.20,NNW,329,9.0,17.0,77,0.00,,---,0.00,VWS V13.01,2013-01-31 17:26:00,
2013-01-31 11:31:00,-3.2,-8.6,30.21,NW,306,13.0,17.0,77,0.00,,---,0.00,VWS V13.01,2013-01-31 17:31:00,
2013-01-31 11:36:00,-2.9,-8.3,30.21,NW,313,12.0,19.0,77,0.00,,---,0.00,VWS V13.01,2013-01-31 17:36:00,
2013-01-31 11:41:00,-2.7,-8.1,30.21,NNW,346,5.0,19.0,77,0.00,,---,0.00,VWS V13.01,2013-01-31 17:41:00,
2013-01-31 11:46:00,-2.5,-7.9,30.20,NNW,346,14.0,19.0,77,0.00,,---,0.00,VWS V13.01,2013-01-31 17:46:00,
2013-01-31 11:51:00,-2.3,-7.7,30.20,NNW,342,10.0,16.0,77,0.00,,---,0.00,VWS V13.01,2013-01-31 17:51:00,
2013-01-31 11:56:00,-2.1,-7.8,30.20,NW,320,10.0,19.0,76,0.00,,---,0.00,VWS V13.01,2013-01-31 17:56:00,
2013-01-31 12:01:00,-2.1,-7.8,30.20,NNW,331,9.0,19.0,76,0.00,,---,0.00,VWS V13.01,2013-01-31 18:01:00,
2013-01-31 12:07:00,-1.8,-7.5,30.20,NNE,20,17.0,21.0,76,0.00,,---,0.00,VWS V13.01,2013-01-31 18:07:00,
2013-01-31 12:12:00,-1.8,-7.8,30.20,NNW,334,10.0,21.0,75,0.00,,---,0.00,VWS V13.01,2013-01-31 18:12:00,
2013-01-31 12:17:00,-1.7,-7.4,30.19,WNW,288,6.0,21.0,76,0.00,,---,0.00,VWS V13.01,2013-01-31 18:17:00,
2013-01-31 12:22:00,-1.4,-7.1,30.19,West,281,5.0,21.0,76,0.00,,---,0.00,VWS V13.01,2013-01-31 18:22:00,
2013-01-31 12:27:00,-1.5,-7.5,30.19,NW,311,6.0,21.0,75,0.00,,---,0.00,VWS V13.01,2013-01-31 18:27:00,
2013-01-31 12:32:00,-1.2,-6.9,30.20,WNW,302,5.0,7.0,76,0.00,,---,0.00,VWS V13.01,2013-01-31 18:32:00,
2013-01-31 12:37:00,-1.4,-7.4,30.20,WNW,296,10.0,18.0,75,0.00,,---,0.00,VWS V13.01,2013-01-31 18:37:00,
2013-01-31 12:42:00,-1.5,-7.2,30.20,WNW,290,11.0,19.0,76,0.00,,---,0.00,VWS V13.01,2013-01-31 18:42:00,
2013-01-31 12:47:00,-1.7,-7.4,30.19,NW,317,8.0,12.0,76,0.00,,---,0.00,VWS V13.01,2013-01-31 18:47:00,
2013-01-31 12:52:00,-1.5,-7.2,30.19,NW,320,10.0,16.0,76,0.00,,---,0.00,VWS V13.01,2013-01-31 18:52:00,
2013-01-31 12:57:00,-1.0,-6.5,30.19,WNW,296,5.0,16.0,77,0.00,,---,0.00,VWS V13.01,2013-01-31 18:57:00,
2013-01-31 13:02:00,-0.9,-6.6,30.20,NW,312,7.0,7.0,76,0.00,,---,0.00,VWS V13.01,2013-01-31 19:02:00,
2013-01-31 13:07:00,-0.8,-6.5,30.20,NW,325,10.0,12.0,76,0.00,,---,0.00,VWS V13.01,2013-01-31 19:07:00,
2013-01-31 13:12:00,-0.8,-6.8,30.20,WNW,291,13.0,18.0,75,0.00,,---,0.00,VWS V13.01,2013-01-31 19:12:00,
2013-01-31 13:17:00,-1.0,-7.0,30.21,WNW,298,10.0,17.0,75,0.00,,---,0.00,VWS V13.01,2013-01-31 19:17:00,
2013-01-31 13:22:00,-0.9,-6.6,30.21,NNW,328,10.0,17.0,76,0.00,,---,0.00,VWS V13.01,2013-01-31 19:22:00,
2013-01-31 13:27:00,-0.6,-6.3,30.21,WNW,286,2.0,17.0,76,0.00,,---,0.00,VWS V13.01,2013-01-31 19:27:00,
2013-01-31 13:32:00,-0.4,-6.1,30.20,NNW,327,8.0,11.0,76,0.00,,---,0.00,VWS V13.01,2013-01-31 19:32:00,
2013-01-31 13:38:00,-0.5,-6.2,30.20,WNW,296,2.0,16.0,76,0.00,,---,0.00,VWS V13.01,2013-01-31 19:38:00,
2013-01-31 13:43:00,-0.7,-6.7,30.20,NNW,327,9.0,16.0,75,0.00,,---,0.00,VWS V13.01,2013-01-31 19:43:00,
2013-01-31 13:48:00,-0.9,-6.9,30.22,NW,313,2.0,11.0,75,0.00,,---,0.00,VWS V13.01,2013-01-31 19:48:00,
2013-01-31 13:53:00,-0.8,-6.8,30.22,WNW,298,3.0,19.0,75,0.00,,---,0.00,VWS V13.01,2013-01-31 19:53:00,
2013-01-31 13:58:00,-0.8,-6.8,30.22,NW,325,4.0,19.0,75,0.00,,---,0.00,VWS V13.01,2013-01-31 19:58:00,
2013-01-31 14:03:00,-0.8,-6.5,30.23,NW,311,2.0,9.0,76,0.00,,---,0.00,VWS V13.01,2013-01-31 20:03:00,
2013-01-31 14:08:00,-0.8,-6.5,30.23,WNW,294,6.0,17.0,76,0.00,,---,0.00,VWS V13.01,2013-01-31 20:08:00,
2013-01-31 14:13:00,-1.0,-7.0,30.23,West,268,11.0,17.0,75,0.00,,---,0.00,VWS V13.01,2013-01-31 20:13:00,
2013-01-31 14:18:00,-0.9,-6.9,30.24,WNW,289,11.0,14.0,75,0.00,,---,0.00,VWS V13.01,2013-01-31 20:18:00,
2013-01-31 14:23:00,-1.0,-6.7,30.24,NNW,344,3.0,15.0,76,0.00,,---,0.00,VWS V13.01,2013-01-31 20:23:00,
2013-01-31 14:28:00,-1.1,-6.8,30.24,NNW,327,7.0,19.0,76,0.00,,---,0.00,VWS V13.01,2013-01-31 20:28:00,
2013-01-31 14:33:00,-1.1,-6.6,30.24,NNW,340,12.0,12.0,77,0.00,,---,0.00,VWS V13.01,2013-01-31 20:33:00,
2013-01-31 14:38:00,-1.0,-6.5,30.24,WNW,295,8.0,17.0,77,0.00,,---,0.00,VWS V13.01,2013-01-31 20:38:00,
2013-01-31 14:43:00,-0.8,-6.3,30.24,NW,309,6.0,18.0,77,0.00,,---,0.00,VWS V13.01,2013-01-31 20:43:00,
2013-01-31 14:48:00,-0.8,-6.3,30.24,West,277,11.0,11.0,77,0.00,,---,0.00,VWS V13.01,2013-01-31 20:48:00,
2013-01-31 14:53:00,-0.8,-6.3,30.24,NNW,337,16.0,16.0,77,0.00,,---,0.00,VWS V13.01,2013-01-31 20:53:00,
2013-01-31 14:58:00,-0.8,-6.3,30.24,WNW,300,4.0,16.0,77,0.00,,---,0.00,VWS V13.01,2013-01-31 20:58:00,
2013-01-31 15:03:00,-0.9,-6.1,30.25,NNW,339,9.0,17.0,78,0.00,,---,0.00,VWS V13.01,2013-01-31 21:03:00,
2013-01-31 15:08:00,-1.0,-6.2,30.25,NW,321,15.0,17.0,78,0.00,,---,0.00,VWS V13.01,2013-01-31 21:08:00,
2013-01-31 15:13:00,-1.0,-6.5,30.25,NNW,334,12.0,17.0,77,0.00,,---,0.00,VWS V13.01,2013-01-31 21:13:00,
2013-01-31 15:18:00,-1.1,-6.6,30.26,NW,320,11.0,18.0,77,0.00,,---,0.00,VWS V13.01,2013-01-31 21:18:00,
2013-01-31 15:23:00,-1.2,-6.7,30.26,NW,312,5.0,18.0,77,0.00,,---,0.00,VWS V13.01,2013-01-31 21:23:00,
2013-01-31 15:28:00,-1.2,-6.7,30.26,West,279,3.0,18.0,77,0.00,,---,0.00,VWS V13.01,2013-01-31 21:28:00,
2013-01-31 15:33:00,-1.3,-6.5,30.27,WNW,302,6.0,12.0,78,0.00,,---,0.00,VWS V13.01,2013-01-31 21:33:00,
2013-01-31 15:38:00,-1.2,-6.4,30.27,NNW,340,18.0,18.0,78,0.00,,---,0.00,VWS V13.01,2013-01-31 21:38:00,
2013-01-31 15:43:00,-1.1,-6.3,30.27,NW,312,5.0,18.0,78,0.00,,---,0.00,VWS V13.01,2013-01-31 21:43:00,
2013-01-31 15:48:00,-1.1,-6.3,30.27,NW,306,5.0,14.0,78,0.00,,---,0.00,VWS V13.01,2013-01-31 21:48:00,
2013-01-31 15:54:00,-1.1,-6.3,30.27,NW,306,3.0,14.0,78,0.00,,---,0.00,VWS V13.01,2013-01-31 21:54:00,
2013-01-31 15:59:00,-1.2,-6.4,30.27,WNW,290,1.0,16.0,78,0.00,,---,0.00,VWS V13.01,2013-01-31 21:59:00,
2013-01-31 16:04:00,-1.3,-6.2,30.28,NW,306,7.0,13.0,79,0.00,,---,0.00,VWS V13.01,2013-01-31 22:04:00,
2013-01-31 16:09:00,-1.4,-6.3,30.28,WNW,294,4.0,15.0,79,0.00,,---,0.00,VWS V13.01,2013-01-31 22:09:00,
2013-01-31 16:14:00,-1.4,-6.3,30.28,WNW,282,10.0,19.0,79,0.00,,---,0.00,VWS V13.01,2013-01-31 22:14:00,
2013-01-31 16:19:00,-1.6,-6.5,30.31,NW,306,6.0,10.0,79,0.00,,---,0.00,VWS V13.01,2013-01-31 22:19:00,
2013-01-31 16:24:00,-1.7,-6.6,30.31,NNW,340,6.0,15.0,79,0.00,,---,0.00,VWS V13.01,2013-01-31 22:24:00,
2013-01-31 16:29:00,-1.9,-6.8,30.31,NW,322,12.0,15.0,79,0.00,,---,0.00,VWS V13.01,2013-01-31 22:29:00,
2013-01-31 16:34:00,-2.1,-7.3,30.31,WNW,288,10.0,16.0,78,0.00,,---,0.00,VWS V13.01,2013-01-31 22:34:00,
2013-01-31 16:39:00,-2.3,-7.2,30.31,NW,320,5.0,16.0,79,0.00,,---,0.00,VWS V13.01,2013-01-31 22:39:00,
2013-01-31 16:44:00,-2.4,-7.3,30.31,WNW,303,6.0,16.0,79,0.00,,---,0.00,VWS V13.01,2013-01-31 22:44:00,
2013-01-31 16:49:00,-2.5,-7.7,30.32,NNW,344,7.0,14.0,78,0.00,,---,0.00,VWS V13.01,2013-01-31 22:49:00,
2013-01-31 16:54:00,-2.6,-7.5,30.32,NNW,336,5.0,14.0,79,0.00,,---,0.00,VWS V13.01,2013-01-31 22:54:00,
2013-01-31 16:59:00,-2.7,-7.6,30.32,NW,319,9.0,16.0,79,0.00,,---,0.00,VWS V13.01,2013-01-31 22:59:00,
2013-01-31 17:04:00,-2.9,-7.5,30.34,West,269,2.0,10.0,80,0.00,,---,0.00,VWS V13.01,2013-01-31 23:04:00,
2013-01-31 17:09:00,-3.0,-7.6,30.34,West,276,3.0,14.0,80,0.00,,---,0.00,VWS V13.01,2013-01-31 23:09:00,
2013-01-31 17:14:00,-3.0,-7.6,30.34,North,360,11.0,17.0,80,0.00,,---,0.00,VWS V13.01,2013-01-31 23:14:00,
2013-01-31 17:19:00,-3.1,-7.7,30.37,NW,318,9.0,15.0,80,0.00,,---,0.00,VWS V13.01,2013-01-31 23:19:00,
2013-01-31 17:24:00,-3.1,-7.7,30.37,West,278,4.0,15.0,80,0.00,,---,0.00,VWS V13.01,2013-01-31 23:24:00,
2013-01-31 17:29:00,-3.2,-7.8,30.37,NW,310,5.0,15.0,80,0.00,,---,0.00,VWS V13.01,2013-01-31 23:29:00,
2013-01-31 17:34:00,-3.2,-7.8,30.38,NNW,338,10.0,11.0,80,0.00,,---,0.00,VWS V13.01,2013-01-31 23:34:00,
2013-01-31 17:39:00,-3.3,-7.7,30.38,NW,315,9.0,15.0,81,0.00,,---,0.00,VWS V13.01,2013-01-31 23:39:00,
2013-01-31 17:44:00,-3.4,-7.8,30.38,NW,319,5.0,15.0,81,0.00,,---,0.00,VWS V13.01,2013-01-31 23:44:00,
2013-01-31 17:49:00,-3.4,-7.8,30.39,WNW,298,8.0,13.0,81,0.00,,---,0.00,VWS V13.01,2013-01-31 23:49:00,
2013-01-31 17:54:00,-3.5,-7.9,30.39,North,355,6.0,19.0,81,0.00,,---,0.00,VWS V13.01,2013-01-31 23:54:00,
2013-01-31 18:00:00,-3.6,-7.9,30.39,West,271,2.0,19.0,81,0.00,,---,0.00,VWS V13.01,2013-02-01 00:00:00,
2013-01-31 18:05:00,-3.7,-8.1,30.40,NW,312,6.0,12.0,81,0.00,,---,0.00,VWS V13.01,2013-02-01 00:05:00,
2013-01-31 18:10:00,-3.7,-8.1,30.40,NW,308,5.0,13.0,81,0.00,,---,0.00,VWS V13.01,2013-02-01 00:10:00,
2013-01-31 18:15:00,-3.9,-8.0,30.40,NW,313,2.0,13.0,82,0.00,,---,0.00,VWS V13.01,2013-02-01 00:15:00,
2013-01-31 18:20:00,-4.0,-8.1,30.42,WNW,287,1.0,9.0,82,0.00,,---,0.00,VWS V13.01,2013-02-01 00:20:00,
2013-01-31 18:25:00,-4.1,-8.2,30.42,WNW,300,3.0,13.0,82,0.00,,---,0.00,VWS V13.01,2013-02-01 00:25:00,
2013-01-31 18:30:00,-4.2,-8.3,30.42,WNW,290,5.0,13.0,82,0.00,,---,0.00,VWS V13.01,2013-02-01 00:30:00,
2013-01-31 18:35:00,-4.2,-8.3,30.42,WNW,293,5.0,11.0,82,0.00,,---,0.00,VWS V13.01,2013-02-01 00:35:00,
2013-01-31 18:40:00,-4.2,-8.0,30.42,NNW,339,7.0,13.0,83,0.00,,---,0.00,VWS V13.01,2013-02-01 00:40:00,
2013-01-31 18:45:00,-4.2,-8.0,30.42,NW,323,3.0,14.0,83,0.00,,---,0.00,VWS V13.01,2013-02-01 00:45:00,
2013-01-31 18:50:00,-4.3,-8.1,30.43,WNW,296,4.0,7.0,83,0.00,,---,0.00,VWS V13.01,2013-02-01 00:50:00,
2013-01-31 18:55:00,-4.4,-8.2,30.43,NW,311,4.0,13.0,83,0.00,,---,0.00,VWS V13.01,2013-02-01 00:55:00,
2013-01-31 19:00:00,-4.4,-8.2,30.43,WNW,285,9.0,13.0,83,0.00,,---,0.00,VWS V13.01,2013-02-01 01:00:00,
2013-01-31 19:05:00,-4.4,-8.2,30.44,WNW,302,0.0,10.0,83,0.00,,---,0.00,VWS V13.01,2013-02-01 01:05:00,
2013-01-31 19:10:00,-4.5,-8.3,30.44,NW,323,3.0,13.0,83,0.00,,---,0.00,VWS V13.01,2013-02-01 01:10:00,
2013-01-31 19:15:00,-4.6,-8.7,30.44,NW,318,4.0,13.0,82,0.00,,---,0.00,VWS V13.01,2013-02-01 01:15:00,
2013-01-31 19:20:00,-4.5,-8.3,30.44,WNW,294,0.0,15.0,83,0.00,,---,0.00,VWS V13.01,2013-02-01 01:20:00,
2013-01-31 19:25:00,-4.6,-8.7,30.44,WNW,301,4.0,15.0,82,0.00,,---,0.00,VWS V13.01,2013-02-01 01:25:00,
2013-01-31 19:30:00,-4.6,-8.7,30.44,NW,316,5.0,15.0,82,0.00,,---,0.00,VWS V13.01,2013-02-01 01:30:00,
2013-01-31 19:35:00,-4.6,-8.7,30.45,WNW,303,6.0,11.0,82,0.00,,---,0.00,VWS V13.01,2013-02-01 01:35:00,
2013-01-31 19:41:00,-4.5,-8.6,30.45,North,360,6.0,14.0,82,0.00,,---,0.00,VWS V13.01,2013-02-01 01:41:00,
2013-01-31 19:46:00,-4.6,-8.7,30.45,NNW,336,4.0,14.0,82,0.00,,---,0.00,VWS V13.01,2013-02-01 01:46:00,
2013-01-31 19:51:00,-4.6,-8.7,30.45,NNW,342,9.0,15.0,82,0.00,,---,0.00,VWS V13.01,2013-02-01 01:51:00,
2013-01-31 19:56:00,-4.5,-8.6,30.45,NW,309,11.0,17.0,82,0.00,,---,0.00,VWS V13.01,2013-02-01 01:56:00,
2013-01-31 20:01:00,-4.5,-8.8,30.46,NNW,346,2.0,17.0,81,0.00,,---,0.00,VWS V13.01,2013-02-01 02:01:00,
2013-01-31 20:06:00,-4.6,-8.9,30.46,NNW,339,12.0,16.0,81,0.00,,---,0.00,VWS V13.01,2013-02-01 02:06:00,
2013-01-31 20:11:00,-4.6,-8.9,30.46,NNW,340,5.0,16.0,81,0.00,,---,0.00,VWS V13.01,2013-02-01 02:11:00,
2013-01-31 20:16:00,-4.7,-9.0,30.46,NNW,327,4.0,16.0,81,0.00,,---,0.00,VWS V13.01,2013-02-01 02:16:00,
2013-01-31 20:21:00,-4.8,-9.1,30.46,North,355,1.0,15.0,81,0.00,,---,0.00,VWS V13.01,2013-02-01 02:21:00,
2013-01-31 20:26:00,-4.9,-9.2,30.46,WNW,288,1.0,16.0,81,0.00,,---,0.00,VWS V13.01,2013-02-01 02:26:00,
2013-01-31 20:31:00,-5.0,-9.3,30.47,WSW,257,3.0,16.0,81,0.00,,---,0.00,VWS V13.01,2013-02-01 02:31:00,
2013-01-31 20:36:00,-5.0,-9.3,30.47,NW,321,11.0,16.0,81,0.00,,---,0.00,VWS V13.01,2013-02-01 02:36:00,
2013-01-31 20:41:00,-5.1,-9.2,30.47,WNW,300,3.0,16.0,82,0.00,,---,0.00,VWS V13.01,2013-02-01 02:41:00,
2013-01-31 20:46:00,-5.2,-9.3,30.47,West,269,7.0,16.0,82,0.00,,---,0.00,VWS V13.01,2013-02-01 02:46:00,
2013-01-31 20:51:00,-5.3,-9.4,30.47,NNW,331,3.0,14.0,82,0.00,,---,0.00,VWS V13.01,2013-02-01 02:51:00,
2013-01-31 20:56:00,-5.4,-9.2,30.47,WNW,296,3.0,14.0,83,0.00,,---,0.00,VWS V13.01,2013-02-01 02:56:00,
2013-01-31 21:01:00,-5.5,-9.3,30.49,WNW,293,4.0,14.0,83,0.00,,---,0.00,VWS V13.01,2013-02-01 03:01:00,
2013-01-31 21:07:00,-5.6,-9.4,30.49,NNW,333,9.0,13.0,83,0.00,,---,0.00,VWS V13.01,2013-02-01 03:07:00,
2013-01-31 21:12:00,-5.7,-9.5,30.49,WNW,300,6.0,13.0,83,0.00,,---,0.00,VWS V13.01,2013-02-01 03:12:00,
2013-01-31 21:17:00,-5.8,-9.6,30.48,West,277,2.0,13.0,83,0.00,,---,0.00,VWS V13.01,2013-02-01 03:17:00,
2013-01-31 21:22:00,-5.9,-9.7,30.48,NW,326,5.0,14.0,83,0.00,,---,0.00,VWS V13.01,2013-02-01 03:22:00,
2013-01-31 21:27:00,-6.0,-9.8,30.48,WNW,294,3.0,15.0,83,0.00,,---,0.00,VWS V13.01,2013-02-01 03:27:00,
2013-01-31 21:32:00,-6.1,-9.9,30.48,NNW,332,6.0,7.0,83,0.00,,---,0.00,VWS V13.01,2013-02-01 03:32:00,
2013-01-31 21:37:00,-6.1,-10.1,30.48,West,277,5.0,14.0,82,0.00,,---,0.00,VWS V13.01,2013-02-01 03:37:00,
2013-01-31 21:42:00,-6.2,-10.2,30.48,WNW,293,5.0,14.0,82,0.00,,---,0.00,VWS V13.01,2013-02-01 03:42:00,
2013-01-31 21:47:00,-6.3,-10.4,30.48,WNW,286,5.0,5.0,82,0.00,,---,0.00,VWS V13.01,2013-02-01 03:47:00,
2013-01-31 21:52:00,-6.4,-10.7,30.48,WNW,298,10.0,13.0,81,0.00,,---,0.00,VWS V13.01,2013-02-01 03:52:00,
2013-01-31 21:57:00,-6.5,-10.6,30.48,West,277,3.0,13.0,82,0.00,,---,0.00,VWS V13.01,2013-02-01 03:57:00,
2013-01-31 22:02:00,-6.7,-10.7,30.50,WNW,296,6.0,8.0,82,0.00,,---,0.00,VWS V13.01,2013-02-01 04:02:00,
2013-01-31 22:07:00,-6.9,-10.9,30.50,NW,318,3.0,11.0,82,0.00,,---,0.00,VWS V13.01,2013-02-01 04:07:00,
2013-01-31 22:12:00,-7.1,-11.1,30.50,WNW,303,9.0,11.0,82,0.00,,---,0.00,VWS V13.01,2013-02-01 04:12:00,
2013-01-31 22:17:00,-7.4,-11.4,30.48,WNW,299,2.0,12.0,82,0.00,,---,0.00,VWS V13.01,2013-02-01 04:17:00,
2013-01-31 22:22:00,-7.6,-11.6,30.48,NW,326,4.0,15.0,82,0.00,,---,0.00,VWS V13.01,2013-02-01 04:22:00,
2013-01-31 22:28:00,-7.8,-11.8,30.48,WNW,296,7.0,15.0,82,0.00,,---,0.00,VWS V13.01,2013-02-01 04:28:00,
2013-01-31 22:33:00,-8.0,-12.0,30.48,NW,323,5.0,11.0,82,0.00,,---,0.00,VWS V13.01,2013-02-01 04:33:00,
2013-01-31 22:38:00,-8.2,-12.2,30.48,NW,309,9.0,11.0,82,0.00,,---,0.00,VWS V13.01,2013-02-01 04:38:00,
2013-01-31 22:43:00,-8.5,-12.5,30.48,WNW,300,9.0,11.0,82,0.00,,---,0.00,VWS V13.01,2013-02-01 04:43:00,
2013-01-31 22:48:00,-8.6,-12.6,30.49,West,275,3.0,12.0,82,0.00,,---,0.00,VWS V13.01,2013-02-01 04:48:00,
2013-01-31 22:53:00,-8.7,-12.5,30.49,NW,311,13.0,14.0,83,0.00,,---,0.00,VWS V13.01,2013-02-01 04:53:00,
2013-01-31 22:58:00,-8.8,-12.6,30.49,WNW,294,11.0,15.0,83,0.00,,---,0.00,VWS V13.01,2013-02-01 04:58:00,
2013-01-31 23:00:00,-8.9,-12.7,30.49,WNW,294,4.0,15.0,83,0.00,,---,0.00,VWS V13.01,2013-02-01 05:00:00,
2013-01-31 23:01:00,-8.9,-12.7,30.50,WNW,293,3.0,15.0,83,0.00,,---,0.00,VWS V13.01,2013-02-01 05:01:00,
2013-01-31 23:02:00,-9.0,-12.8,30.50,NW,312,5.0,15.0,83,0.00,,---,0.00,VWS V13.01,2013-02-01 05:02:00,
2013-01-31 23:07:00,-9.1,-12.9,30.50,NW,326,7.0,14.0,83,0.00,,---,0.00,VWS V13.01,2013-02-01 05:07:00,
2013-01-31 23:12:00,-9.2,-12.9,30.50,NNW,348,5.0,17.0,83,0.00,,---,0.00,VWS V13.01,2013-02-01 05:12:00,
2013-01-31 23:17:00,-9.4,-13.1,30.48,West,281,6.0,16.0,83,0.00,,---,0.00,VWS V13.01,2013-02-01 05:17:00,
2013-01-31 23:23:00,-9.5,-13.2,30.48,NW,310,6.0,16.0,83,0.00,,---,0.00,VWS V13.01,2013-02-01 05:23:00,
2013-01-31 23:28:00,-9.6,-13.3,30.48,NW,306,3.0,16.0,83,0.00,,---,0.00,VWS V13.01,2013-02-01 05:28:00,
2013-01-31 23:33:00,-9.8,-13.5,30.50,West,271,4.0,4.0,83,0.00,,---,0.00,VWS V13.01,2013-02-01 05:33:00,
2013-01-31 23:38:00,-9.9,-13.6,30.50,NNW,333,5.0,14.0,83,0.00,,---,0.00,VWS V13.01,2013-02-01 05:38:00,
2013-01-31 23:43:00,-10.1,-14.1,30.50,NW,306,4.0,14.0,82,0.00,,---,0.00,VWS V13.01,2013-02-01 05:43:00,
2013-01-31 23:48:00,-10.3,-14.3,30.50,NNW,340,5.0,11.0,82,0.00,,---,0.00,VWS V13.01,2013-02-01 05:48:00,
2013-01-31 23:53:00,-10.4,-14.4,30.50,WNW,286,3.0,11.0,82,0.00,,---,0.00,VWS V13.01,2013-02-01 05:53:00,
2013-01-31 23:58:00,-10.6,-14.6,30.50,North,355,12.0,12.0,82,0.00,,---,0.00,VWS V13.01,2013-02-01 05:58:00,